sensor_id;sensor_type;location;lat;lon;timestamp;P1;durP1;ratioP1;P2;durP2;ratioP2
9767;SDS011;4923;52.520;13.494;2023-04-12T00:02:34;3.33;;;1.73;;
9767;SDS011;4923;52.520;13.494;2023-04-12T00:05:23;2.35;;;1.25;;
9767;SDS011;4923;52.520;13.494;2023-04-12T00:08:11;2.53;;;1.35;;
9767;SDS011;4923;52.520;13.494;2023-04-12T00:10:58;2.80;;;1.80;;
9767;SDS011;4923;52.520;13.494;2023-04-12T00:13:45;5.28;;;1.20;;
9767;SDS011;4923;52.520;13.494;2023-04-12T00:16:32;1.95;;;1.75;;
9767;SDS011;4923;52.520;13.494;2023-04-12T00:19:20;1.30;;;1.30;;
9767;SDS011;4923;52.520;13.494;2023-04-12T00:22:13;3.63;;;1.65;;
9767;SDS011;4923;52.520;13.494;2023-04-12T00:25:00;4.35;;;2.35;;
9767;SDS011;4923;52.520;13.494;2023-04-12T00:27:47;2.17;;;1.45;;
9767;SDS011;4923;52.520;13.494;2023-04-12T00:30:34;2.60;;;1.13;;
9767;SDS011;4923;52.520;13.494;2023-04-12T00:33:21;1.80;;;1.70;;
9767;SDS011;4923;52.520;13.494;2023-04-12T00:36:08;1.58;;;1.48;;
9767;SDS011;4923;52.520;13.494;2023-04-12T00:38:56;1.40;;;1.30;;
9767;SDS011;4923;52.520;13.494;2023-04-12T00:41:43;7.03;;;1.50;;
9767;SDS011;4923;52.520;13.494;2023-04-12T00:44:31;6.72;;;1.73;;
9767;SDS011;4923;52.520;13.494;2023-04-12T00:47:19;5.15;;;1.52;;
9767;SDS011;4923;52.520;13.494;2023-04-12T00:50:06;3.00;;;1.42;;
9767;SDS011;4923;52.520;13.494;2023-04-12T00:52:55;2.15;;;1.50;;
9767;SDS011;4923;52.520;13.494;2023-04-12T00:55:44;1.98;;;1.70;;
9767;SDS011;4923;52.520;13.494;2023-04-12T00:58:32;1.60;;;1.13;;
9767;SDS011;4923;52.520;13.494;2023-04-12T01:01:18;3.50;;;1.60;;
9767;SDS011;4923;52.520;13.494;2023-04-12T01:04:05;3.60;;;1.73;;
9767;SDS011;4923;52.520;13.494;2023-04-12T01:07:00;3.55;;;1.52;;
9767;SDS011;4923;52.520;13.494;2023-04-12T01:09:56;6.28;;;2.40;;
9767;SDS011;4923;52.520;13.494;2023-04-12T01:12:52;9.10;;;1.80;;
9767;SDS011;4923;52.520;13.494;2023-04-12T01:15:48;2.40;;;1.60;;
9767;SDS011;4923;52.520;13.494;2023-04-12T01:18:43;3.63;;;1.98;;
9767;SDS011;4923;52.520;13.494;2023-04-12T01:21:39;2.97;;;2.00;;
9767;SDS011;4923;52.520;13.494;2023-04-12T01:24:42;4.43;;;1.73;;
9767;SDS011;4923;52.520;13.494;2023-04-12T01:27:42;6.57;;;1.83;;
9767;SDS011;4923;52.520;13.494;2023-04-12T01:30:31;6.38;;;2.20;;
9767;SDS011;4923;52.520;13.494;2023-04-12T01:33:19;3.95;;;2.35;;
9767;SDS011;4923;52.520;13.494;2023-04-12T01:36:09;4.35;;;2.10;;
9767;SDS011;4923;52.520;13.494;2023-04-12T01:38:57;3.17;;;1.98;;
9767;SDS011;4923;52.520;13.494;2023-04-12T01:41:45;4.80;;;1.70;;
9767;SDS011;4923;52.520;13.494;2023-04-12T01:44:34;2.03;;;1.90;;
9767;SDS011;4923;52.520;13.494;2023-04-12T01:47:21;7.38;;;2.08;;
9767;SDS011;4923;52.520;13.494;2023-04-12T01:50:11;5.18;;;2.45;;
9767;SDS011;4923;52.520;13.494;2023-04-12T01:53:02;2.47;;;2.00;;
9767;SDS011;4923;52.520;13.494;2023-04-12T01:55:56;3.20;;;2.70;;
9767;SDS011;4923;52.520;13.494;2023-04-12T01:58:47;3.42;;;2.10;;
9767;SDS011;4923;52.520;13.494;2023-04-12T02:01:37;2.75;;;1.88;;
9767;SDS011;4923;52.520;13.494;2023-04-12T02:04:24;6.20;;;2.60;;
9767;SDS011;4923;52.520;13.494;2023-04-12T02:07:12;2.72;;;2.00;;
9767;SDS011;4923;52.520;13.494;2023-04-12T02:10:03;2.25;;;2.08;;
9767;SDS011;4923;52.520;13.494;2023-04-12T02:12:50;2.67;;;2.58;;
9767;SDS011;4923;52.520;13.494;2023-04-12T02:15:38;3.70;;;2.15;;
9767;SDS011;4923;52.520;13.494;2023-04-12T02:18:27;4.18;;;2.78;;
9767;SDS011;4923;52.520;13.494;2023-04-12T02:21:14;3.33;;;2.10;;
9767;SDS011;4923;52.520;13.494;2023-04-12T02:24:04;5.68;;;2.22;;
9767;SDS011;4923;52.520;13.494;2023-04-12T02:26:51;6.53;;;2.08;;
9767;SDS011;4923;52.520;13.494;2023-04-12T02:29:39;3.20;;;2.25;;
9767;SDS011;4923;52.520;13.494;2023-04-12T02:32:26;5.85;;;2.15;;
9767;SDS011;4923;52.520;13.494;2023-04-12T02:35:16;7.15;;;2.22;;
9767;SDS011;4923;52.520;13.494;2023-04-12T02:38:03;3.00;;;2.17;;
9767;SDS011;4923;52.520;13.494;2023-04-12T02:40:52;4.70;;;2.38;;
9767;SDS011;4923;52.520;13.494;2023-04-12T02:43:39;3.42;;;2.10;;
9767;SDS011;4923;52.520;13.494;2023-04-12T02:46:26;4.75;;;2.38;;
9767;SDS011;4923;52.520;13.494;2023-04-12T02:49:12;2.22;;;2.10;;
9767;SDS011;4923;52.520;13.494;2023-04-12T02:52:01;2.15;;;2.05;;
9767;SDS011;4923;52.520;13.494;2023-04-12T02:54:48;4.38;;;2.60;;
9767;SDS011;4923;52.520;13.494;2023-04-12T02:57:35;4.70;;;2.38;;
9767;SDS011;4923;52.520;13.494;2023-04-12T03:00:22;3.60;;;2.30;;
9767;SDS011;4923;52.520;13.494;2023-04-12T03:03:09;4.32;;;2.10;;
9767;SDS011;4923;52.520;13.494;2023-04-12T03:05:56;3.33;;;1.98;;
9767;SDS011;4923;52.520;13.494;2023-04-12T03:08:44;2.75;;;1.75;;
9767;SDS011;4923;52.520;13.494;2023-04-12T03:11:32;2.90;;;1.80;;
9767;SDS011;4923;52.520;13.494;2023-04-12T03:14:19;3.20;;;2.15;;
9767;SDS011;4923;52.520;13.494;2023-04-12T03:17:05;3.95;;;2.15;;
9767;SDS011;4923;52.520;13.494;2023-04-12T03:19:53;1.95;;;1.85;;
9767;SDS011;4923;52.520;13.494;2023-04-12T03:22:42;1.90;;;1.77;;
9767;SDS011;4923;52.520;13.494;2023-04-12T03:25:30;2.67;;;2.40;;
9767;SDS011;4923;52.520;13.494;2023-04-12T03:28:17;2.92;;;2.40;;
9767;SDS011;4923;52.520;13.494;2023-04-12T03:31:04;3.45;;;2.45;;
9767;SDS011;4923;52.520;13.494;2023-04-12T03:33:51;4.90;;;2.80;;
9767;SDS011;4923;52.520;13.494;2023-04-12T03:36:38;2.55;;;2.25;;
9767;SDS011;4923;52.520;13.494;2023-04-12T03:39:25;7.70;;;2.58;;
9767;SDS011;4923;52.520;13.494;2023-04-12T03:42:14;2.80;;;2.20;;
9767;SDS011;4923;52.520;13.494;2023-04-12T03:45:00;2.83;;;2.60;;
9767;SDS011;4923;52.520;13.494;2023-04-12T03:47:47;2.92;;;2.70;;
9767;SDS011;4923;52.520;13.494;2023-04-12T03:50:34;2.80;;;2.55;;
9767;SDS011;4923;52.520;13.494;2023-04-12T03:53:28;2.60;;;2.40;;
9767;SDS011;4923;52.520;13.494;2023-04-12T03:56:15;4.85;;;2.80;;
9767;SDS011;4923;52.520;13.494;2023-04-12T03:59:05;2.92;;;2.70;;
9767;SDS011;4923;52.520;13.494;2023-04-12T04:01:52;6.28;;;2.33;;
9767;SDS011;4923;52.520;13.494;2023-04-12T04:04:39;2.90;;;2.80;;
9767;SDS011;4923;52.520;13.494;2023-04-12T04:07:27;9.68;;;2.83;;
9767;SDS011;4923;52.520;13.494;2023-04-12T04:10:16;3.75;;;2.55;;
9767;SDS011;4923;52.520;13.494;2023-04-12T04:13:02;2.30;;;2.20;;
9767;SDS011;4923;52.520;13.494;2023-04-12T04:15:55;5.85;;;2.53;;
9767;SDS011;4923;52.520;13.494;2023-04-12T04:18:45;2.70;;;2.50;;
9767;SDS011;4923;52.520;13.494;2023-04-12T04:21:32;3.97;;;2.35;;
9767;SDS011;4923;52.520;13.494;2023-04-12T04:24:19;6.30;;;2.83;;
9767;SDS011;4923;52.520;13.494;2023-04-12T04:27:06;10.32;;;3.10;;
9767;SDS011;4923;52.520;13.494;2023-04-12T04:29:53;4.20;;;2.88;;
9767;SDS011;4923;52.520;13.494;2023-04-12T04:32:43;9.52;;;3.20;;
9767;SDS011;4923;52.520;13.494;2023-04-12T04:35:30;5.00;;;3.47;;
9767;SDS011;4923;52.520;13.494;2023-04-12T04:38:17;4.75;;;2.88;;
9767;SDS011;4923;52.520;13.494;2023-04-12T04:41:05;9.88;;;2.90;;
9767;SDS011;4923;52.520;13.494;2023-04-12T04:43:53;2.80;;;2.60;;
9767;SDS011;4923;52.520;13.494;2023-04-12T04:46:40;3.47;;;3.38;;
9767;SDS011;4923;52.520;13.494;2023-04-12T04:49:28;3.25;;;2.97;;
9767;SDS011;4923;52.520;13.494;2023-04-12T04:52:15;4.03;;;2.80;;
9767;SDS011;4923;52.520;13.494;2023-04-12T04:55:02;2.92;;;2.70;;
9767;SDS011;4923;52.520;13.494;2023-04-12T04:57:50;5.55;;;3.55;;
9767;SDS011;4923;52.520;13.494;2023-04-12T05:00:37;2.60;;;2.40;;
9767;SDS011;4923;52.520;13.494;2023-04-12T05:03:24;3.58;;;3.28;;
9767;SDS011;4923;52.520;13.494;2023-04-12T05:06:13;6.45;;;4.00;;
9767;SDS011;4923;52.520;13.494;2023-04-12T05:09:00;3.40;;;2.65;;
9767;SDS011;4923;52.520;13.494;2023-04-12T05:11:49;4.57;;;2.97;;
9767;SDS011;4923;52.520;13.494;2023-04-12T05:14:36;9.43;;;2.88;;
9767;SDS011;4923;52.520;13.494;2023-04-12T05:17:24;4.97;;;2.55;;
9767;SDS011;4923;52.520;13.494;2023-04-12T05:20:11;6.45;;;2.97;;
9767;SDS011;4923;52.520;13.494;2023-04-12T05:22:59;7.38;;;3.20;;
9767;SDS011;4923;52.520;13.494;2023-04-12T05:25:46;3.95;;;2.45;;
9767;SDS011;4923;52.520;13.494;2023-04-12T05:28:34;2.78;;;2.67;;
9767;SDS011;4923;52.520;13.494;2023-04-12T05:31:21;3.58;;;3.28;;
9767;SDS011;4923;52.520;13.494;2023-04-12T05:34:08;6.28;;;2.60;;
9767;SDS011;4923;52.520;13.494;2023-04-12T05:36:55;6.60;;;3.20;;
9767;SDS011;4923;52.520;13.494;2023-04-12T05:39:45;6.32;;;2.88;;
9767;SDS011;4923;52.520;13.494;2023-04-12T05:42:32;8.30;;;3.30;;
9767;SDS011;4923;52.520;13.494;2023-04-12T05:45:18;2.83;;;2.20;;
9767;SDS011;4923;52.520;13.494;2023-04-12T05:48:05;6.28;;;4.65;;
9767;SDS011;4923;52.520;13.494;2023-04-12T05:50:52;9.18;;;2.60;;
9767;SDS011;4923;52.520;13.494;2023-04-12T05:53:40;4.40;;;2.72;;
9767;SDS011;4923;52.520;13.494;2023-04-12T05:56:28;7.30;;;2.33;;
9767;SDS011;4923;52.520;13.494;2023-04-12T05:59:15;3.47;;;2.40;;
9767;SDS011;4923;52.520;13.494;2023-04-12T06:02:03;3.72;;;2.13;;
9767;SDS011;4923;52.520;13.494;2023-04-12T06:04:50;2.65;;;2.28;;
9767;SDS011;4923;52.520;13.494;2023-04-12T06:07:37;3.88;;;3.55;;
9767;SDS011;4923;52.520;13.494;2023-04-12T06:10:26;4.07;;;2.65;;
9767;SDS011;4923;52.520;13.494;2023-04-12T06:13:14;4.20;;;2.95;;
9767;SDS011;4923;52.520;13.494;2023-04-12T06:16:01;2.75;;;2.50;;
9767;SDS011;4923;52.520;13.494;2023-04-12T06:18:48;5.30;;;2.50;;
9767;SDS011;4923;52.520;13.494;2023-04-12T06:21:35;4.78;;;2.33;;
9767;SDS011;4923;52.520;13.494;2023-04-12T06:24:22;3.17;;;1.77;;
9767;SDS011;4923;52.520;13.494;2023-04-12T06:27:09;4.13;;;2.50;;
9767;SDS011;4923;52.520;13.494;2023-04-12T06:29:57;4.13;;;2.20;;
9767;SDS011;4923;52.520;13.494;2023-04-12T06:32:44;3.08;;;1.90;;
9767;SDS011;4923;52.520;13.494;2023-04-12T06:35:31;4.68;;;2.28;;
9767;SDS011;4923;52.520;13.494;2023-04-12T06:38:17;6.00;;;2.28;;
9767;SDS011;4923;52.520;13.494;2023-04-12T06:41:05;2.85;;;1.60;;
9767;SDS011;4923;52.520;13.494;2023-04-12T06:43:52;2.20;;;1.98;;
9767;SDS011;4923;52.520;13.494;2023-04-12T06:46:40;2.08;;;1.90;;
9767;SDS011;4923;52.520;13.494;2023-04-12T06:49:27;2.85;;;1.70;;
9767;SDS011;4923;52.520;13.494;2023-04-12T06:52:13;1.42;;;1.33;;
9767;SDS011;4923;52.520;13.494;2023-04-12T06:55:00;1.27;;;1.27;;
9767;SDS011;4923;52.520;13.494;2023-04-12T06:57:47;1.45;;;1.33;;
9767;SDS011;4923;52.520;13.494;2023-04-12T07:00:36;5.40;;;1.52;;
9767;SDS011;4923;52.520;13.494;2023-04-12T07:03:24;3.03;;;1.45;;
9767;SDS011;4923;52.520;13.494;2023-04-12T07:06:13;1.70;;;1.60;;
9767;SDS011;4923;52.520;13.494;2023-04-12T07:09:00;5.13;;;1.38;;
9767;SDS011;4923;52.520;13.494;2023-04-12T07:11:47;3.35;;;1.10;;
9767;SDS011;4923;52.520;13.494;2023-04-12T07:14:33;6.10;;;2.15;;
9767;SDS011;4923;52.520;13.494;2023-04-12T07:17:20;3.83;;;1.38;;
9767;SDS011;4923;52.520;13.494;2023-04-12T07:20:09;1.50;;;1.17;;
9767;SDS011;4923;52.520;13.494;2023-04-12T07:22:57;1.55;;;1.10;;
9767;SDS011;4923;52.520;13.494;2023-04-12T07:25:44;1.20;;;1.10;;
9767;SDS011;4923;52.520;13.494;2023-04-12T07:28:30;4.13;;;1.23;;
9767;SDS011;4923;52.520;13.494;2023-04-12T07:31:17;3.05;;;1.15;;
9767;SDS011;4923;52.520;13.494;2023-04-12T07:34:04;3.65;;;1.48;;
9767;SDS011;4923;52.520;13.494;2023-04-12T07:36:52;7.30;;;1.38;;
9767;SDS011;4923;52.520;13.494;2023-04-12T07:39:40;1.15;;;1.02;;
9767;SDS011;4923;52.520;13.494;2023-04-12T07:42:26;1.48;;;0.90;;
9767;SDS011;4923;52.520;13.494;2023-04-12T07:45:13;5.93;;;2.10;;
9767;SDS011;4923;52.520;13.494;2023-04-12T07:48:00;0.60;;;0.60;;
9767;SDS011;4923;52.520;13.494;2023-04-12T07:50:47;1.88;;;0.80;;
9767;SDS011;4923;52.520;13.494;2023-04-12T07:53:36;1.55;;;0.70;;
9767;SDS011;4923;52.520;13.494;2023-04-12T07:56:23;2.78;;;0.70;;
9767;SDS011;4923;52.520;13.494;2023-04-12T07:59:09;0.50;;;0.50;;
9767;SDS011;4923;52.520;13.494;2023-04-12T08:01:56;1.02;;;0.60;;
9767;SDS011;4923;52.520;13.494;2023-04-12T08:04:43;2.15;;;0.80;;
9767;SDS011;4923;52.520;13.494;2023-04-12T08:07:30;2.65;;;1.10;;
9767;SDS011;4923;52.520;13.494;2023-04-12T08:10:20;2.88;;;0.80;;
9767;SDS011;4923;52.520;13.494;2023-04-12T08:13:06;2.80;;;0.75;;
9767;SDS011;4923;52.520;13.494;2023-04-12T08:15:53;0.73;;;0.73;;
9767;SDS011;4923;52.520;13.494;2023-04-12T08:18:40;2.83;;;0.60;;
9767;SDS011;4923;52.520;13.494;2023-04-12T08:21:27;3.97;;;0.70;;
9767;SDS011;4923;52.520;13.494;2023-04-12T08:24:15;1.10;;;0.80;;
9767;SDS011;4923;52.520;13.494;2023-04-12T08:27:03;0.60;;;0.55;;
9767;SDS011;4923;52.520;13.494;2023-04-12T08:29:50;2.70;;;0.80;;
9767;SDS011;4923;52.520;13.494;2023-04-12T08:32:37;0.75;;;0.65;;
9767;SDS011;4923;52.520;13.494;2023-04-12T08:35:23;1.23;;;0.50;;
9767;SDS011;4923;52.520;13.494;2023-04-12T08:38:10;1.10;;;0.60;;
9767;SDS011;4923;52.520;13.494;2023-04-12T08:40:57;7.80;;;0.90;;
9767;SDS011;4923;52.520;13.494;2023-04-12T08:43:49;1.95;;;0.57;;
9767;SDS011;4923;52.520;13.494;2023-04-12T08:46:37;0.95;;;0.60;;
9767;SDS011;4923;52.520;13.494;2023-04-12T08:49:24;2.95;;;0.60;;
9767;SDS011;4923;52.520;13.494;2023-04-12T08:52:11;2.67;;;0.50;;
9767;SDS011;4923;52.520;13.494;2023-04-12T08:54:59;3.22;;;0.60;;
9767;SDS011;4923;52.520;13.494;2023-04-12T08:57:47;1.52;;;0.70;;
9767;SDS011;4923;52.520;13.494;2023-04-12T09:00:36;1.20;;;0.50;;
9767;SDS011;4923;52.520;13.494;2023-04-12T09:03:24;3.45;;;0.90;;
9767;SDS011;4923;52.520;13.494;2023-04-12T09:06:11;2.47;;;0.60;;
9767;SDS011;4923;52.520;13.494;2023-04-12T09:08:58;0.50;;;0.50;;
9767;SDS011;4923;52.520;13.494;2023-04-12T09:11:45;1.33;;;1.15;;
9767;SDS011;4923;52.520;13.494;2023-04-12T09:14:32;0.50;;;0.50;;
9767;SDS011;4923;52.520;13.494;2023-04-12T09:17:21;1.58;;;0.70;;
9767;SDS011;4923;52.520;13.494;2023-04-12T09:20:21;1.17;;;0.52;;
9767;SDS011;4923;52.520;13.494;2023-04-12T09:23:16;3.63;;;0.73;;
9767;SDS011;4923;52.520;13.494;2023-04-12T09:26:04;3.90;;;0.90;;
9767;SDS011;4923;52.520;13.494;2023-04-12T09:28:52;3.58;;;0.70;;
9767;SDS011;4923;52.520;13.494;2023-04-12T09:31:39;1.07;;;0.50;;
9767;SDS011;4923;52.520;13.494;2023-04-12T09:34:41;0.60;;;0.60;;
9767;SDS011;4923;52.520;13.494;2023-04-12T09:37:40;3.53;;;0.90;;
9767;SDS011;4923;52.520;13.494;2023-04-12T09:40:27;1.23;;;0.80;;
9767;SDS011;4923;52.520;13.494;2023-04-12T09:43:34;2.40;;;0.83;;
9767;SDS011;4923;52.520;13.494;2023-04-12T09:46:21;3.80;;;0.90;;
9767;SDS011;4923;52.520;13.494;2023-04-12T09:49:08;0.83;;;0.63;;
9767;SDS011;4923;52.520;13.494;2023-04-12T09:51:56;2.00;;;0.77;;
9767;SDS011;4923;52.520;13.494;2023-04-12T09:54:44;2.33;;;0.77;;
9767;SDS011;4923;52.520;13.494;2023-04-12T09:57:33;2.73;;;0.93;;
9767;SDS011;4923;52.520;13.494;2023-04-12T10:00:21;16.30;;;1.00;;
9767;SDS011;4923;52.520;13.494;2023-04-12T10:03:11;3.13;;;0.70;;
9767;SDS011;4923;52.520;13.494;2023-04-12T10:05:58;1.47;;;0.70;;
9767;SDS011;4923;52.520;13.494;2023-04-12T10:08:46;6.70;;;1.00;;
9767;SDS011;4923;52.520;13.494;2023-04-12T10:11:35;4.67;;;0.60;;
9767;SDS011;4923;52.520;13.494;2023-04-12T10:14:25;4.33;;;1.03;;
9767;SDS011;4923;52.520;13.494;2023-04-12T10:17:13;1.77;;;0.80;;
9767;SDS011;4923;52.520;13.494;2023-04-12T10:20:00;1.80;;;0.80;;
9767;SDS011;4923;52.520;13.494;2023-04-12T10:22:50;1.80;;;0.60;;
9767;SDS011;4923;52.520;13.494;2023-04-12T10:25:24;3.30;;;0.70;;
9767;SDS011;4923;52.520;13.494;2023-04-12T10:28:14;1.20;;;0.87;;
9767;SDS011;4923;52.520;13.494;2023-04-12T10:34:14;3.93;;;0.83;;
9767;SDS011;4923;52.520;13.494;2023-04-12T10:37:01;4.30;;;0.77;;
9767;SDS011;4923;52.520;13.494;2023-04-12T10:39:52;0.97;;;0.67;;
9767;SDS011;4923;52.520;13.494;2023-04-12T10:42:40;5.47;;;0.73;;
9767;SDS011;4923;52.520;13.494;2023-04-12T10:45:36;3.93;;;0.70;;
9767;SDS011;4923;52.520;13.494;2023-04-12T10:48:30;0.97;;;0.60;;
9767;SDS011;4923;52.520;13.494;2023-04-12T10:51:19;2.43;;;0.60;;
9767;SDS011;4923;52.520;13.494;2023-04-12T10:54:29;0.60;;;0.60;;
9767;SDS011;4923;52.520;13.494;2023-04-12T11:07:05;2.57;;;0.80;;
9767;SDS011;4923;52.520;13.494;2023-04-12T11:09:56;5.43;;;0.67;;
9767;SDS011;4923;52.520;13.494;2023-04-12T11:12:48;0.90;;;0.83;;
9767;SDS011;4923;52.520;13.494;2023-04-12T11:15:37;3.53;;;0.73;;
9767;SDS011;4923;52.520;13.494;2023-04-12T11:18:25;0.67;;;0.60;;
9767;SDS011;4923;52.520;13.494;2023-04-12T11:21:11;14.43;;;1.07;;
9767;SDS011;4923;52.520;13.494;2023-04-12T11:23:59;4.13;;;0.70;;
9767;SDS011;4923;52.520;13.494;2023-04-12T11:26:46;2.50;;;1.00;;
9767;SDS011;4923;52.520;13.494;2023-04-12T11:29:35;1.13;;;0.60;;
9767;SDS011;4923;52.520;13.494;2023-04-12T11:32:22;5.40;;;0.70;;
9767;SDS011;4923;52.520;13.494;2023-04-12T11:35:12;2.97;;;0.70;;
9767;SDS011;4923;52.520;13.494;2023-04-12T11:38:00;5.03;;;0.70;;
9767;SDS011;4923;52.520;13.494;2023-04-12T11:40:47;4.23;;;0.90;;
9767;SDS011;4923;52.520;13.494;2023-04-12T11:43:34;1.33;;;0.60;;
9767;SDS011;4923;52.520;13.494;2023-04-12T11:46:24;3.13;;;1.10;;
9767;SDS011;4923;52.520;13.494;2023-04-12T11:49:13;1.83;;;1.73;;
9767;SDS011;4923;52.520;13.494;2023-04-12T11:52:01;1.00;;;0.60;;
9767;SDS011;4923;52.520;13.494;2023-04-12T11:54:49;0.93;;;0.60;;
9767;SDS011;4923;52.520;13.494;2023-04-12T11:57:40;3.03;;;0.80;;
9767;SDS011;4923;52.520;13.494;2023-04-12T12:00:27;0.97;;;0.60;;
9767;SDS011;4923;52.520;13.494;2023-04-12T12:03:16;0.50;;;0.50;;
9767;SDS011;4923;52.520;13.494;2023-04-12T12:06:04;4.13;;;0.77;;
9767;SDS011;4923;52.520;13.494;2023-04-12T12:08:52;1.13;;;0.60;;
9767;SDS011;4923;52.520;13.494;2023-04-12T12:11:40;4.30;;;0.73;;
9767;SDS011;4923;52.520;13.494;2023-04-12T12:14:27;2.53;;;0.70;;
9767;SDS011;4923;52.520;13.494;2023-04-12T12:17:15;0.70;;;0.70;;
9767;SDS011;4923;52.520;13.494;2023-04-12T12:20:04;1.60;;;0.67;;
9767;SDS011;4923;52.520;13.494;2023-04-12T12:22:51;3.80;;;0.60;;
9767;SDS011;4923;52.520;13.494;2023-04-12T12:25:43;2.97;;;0.90;;
9767;SDS011;4923;52.520;13.494;2023-04-12T12:28:35;0.80;;;0.80;;
9767;SDS011;4923;52.520;13.494;2023-04-12T12:31:23;3.67;;;0.60;;
9767;SDS011;4923;52.520;13.494;2023-04-12T12:34:12;2.90;;;0.60;;
9767;SDS011;4923;52.520;13.494;2023-04-12T12:37:01;5.87;;;0.80;;
9767;SDS011;4923;52.520;13.494;2023-04-12T12:40:04;2.50;;;0.90;;
9767;SDS011;4923;52.520;13.494;2023-04-12T12:42:57;1.60;;;0.83;;
9767;SDS011;4923;52.520;13.494;2023-04-12T12:45:45;0.53;;;0.53;;
9767;SDS011;4923;52.520;13.494;2023-04-12T12:48:32;2.30;;;0.80;;
9767;SDS011;4923;52.520;13.494;2023-04-12T12:51:23;6.40;;;0.73;;
9767;SDS011;4923;52.520;13.494;2023-04-12T12:54:13;4.33;;;0.87;;
9767;SDS011;4923;52.520;13.494;2023-04-12T12:57:02;6.83;;;0.83;;
9767;SDS011;4923;52.520;13.494;2023-04-12T12:59:49;0.60;;;0.60;;
9767;SDS011;4923;52.520;13.494;2023-04-12T13:02:37;4.73;;;0.73;;
9767;SDS011;4923;52.520;13.494;2023-04-12T13:05:24;4.10;;;1.20;;
9767;SDS011;4923;52.520;13.494;2023-04-12T13:08:11;5.67;;;1.43;;
9767;SDS011;4923;52.520;13.494;2023-04-12T13:10:59;0.93;;;0.83;;
9767;SDS011;4923;52.520;13.494;2023-04-12T13:13:47;1.43;;;0.67;;
9767;SDS011;4923;52.520;13.494;2023-04-12T13:16:33;2.13;;;0.70;;
9767;SDS011;4923;52.520;13.494;2023-04-12T13:19:20;3.23;;;0.80;;
9767;SDS011;4923;52.520;13.494;2023-04-12T13:22:07;4.07;;;0.80;;
9767;SDS011;4923;52.520;13.494;2023-04-12T13:24:54;3.57;;;0.90;;
9767;SDS011;4923;52.520;13.494;2023-04-12T13:27:42;1.50;;;0.80;;
9767;SDS011;4923;52.520;13.494;2023-04-12T13:30:29;1.90;;;0.70;;
9767;SDS011;4923;52.520;13.494;2023-04-12T13:33:16;1.43;;;0.70;;
9767;SDS011;4923;52.520;13.494;2023-04-12T13:36:03;0.83;;;0.60;;
9767;SDS011;4923;52.520;13.494;2023-04-12T13:38:50;4.80;;;0.80;;
9767;SDS011;4923;52.520;13.494;2023-04-12T13:41:37;3.80;;;0.70;;
9767;SDS011;4923;52.520;13.494;2023-04-12T13:44:25;0.90;;;0.57;;
9767;SDS011;4923;52.520;13.494;2023-04-12T13:47:12;1.63;;;0.97;;
9767;SDS011;4923;52.520;13.494;2023-04-12T13:49:59;1.90;;;0.80;;
9767;SDS011;4923;52.520;13.494;2023-04-12T13:52:46;0.70;;;0.67;;
9767;SDS011;4923;52.520;13.494;2023-04-12T13:55:33;4.10;;;0.87;;
9767;SDS011;4923;52.520;13.494;2023-04-12T13:58:20;1.07;;;0.70;;
9767;SDS011;4923;52.520;13.494;2023-04-12T14:01:08;4.23;;;0.93;;
9767;SDS011;4923;52.520;13.494;2023-04-12T14:03:55;0.90;;;0.90;;
9767;SDS011;4923;52.520;13.494;2023-04-12T14:06:42;1.90;;;0.93;;
9767;SDS011;4923;52.520;13.494;2023-04-12T14:09:30;2.23;;;0.83;;
9767;SDS011;4923;52.520;13.494;2023-04-12T14:12:18;1.60;;;0.70;;
9767;SDS011;4923;52.520;13.494;2023-04-12T14:15:05;4.87;;;1.13;;
9767;SDS011;4923;52.520;13.494;2023-04-12T14:17:54;3.23;;;1.20;;
9767;SDS011;4923;52.520;13.494;2023-04-12T14:20:41;2.00;;;0.80;;
9767;SDS011;4923;52.520;13.494;2023-04-12T14:23:30;2.20;;;0.80;;
9767;SDS011;4923;52.520;13.494;2023-04-12T14:26:17;7.00;;;0.73;;
9767;SDS011;4923;52.520;13.494;2023-04-12T14:29:04;2.50;;;0.83;;
9767;SDS011;4923;52.520;13.494;2023-04-12T14:31:51;1.80;;;0.70;;
9767;SDS011;4923;52.520;13.494;2023-04-12T14:34:39;3.93;;;0.60;;
9767;SDS011;4923;52.520;13.494;2023-04-12T14:37:27;1.90;;;0.80;;
9767;SDS011;4923;52.520;13.494;2023-04-12T14:40:14;1.53;;;0.60;;
9767;SDS011;4923;52.520;13.494;2023-04-12T14:43:02;2.43;;;0.80;;
9767;SDS011;4923;52.520;13.494;2023-04-12T14:45:49;4.20;;;1.10;;
9767;SDS011;4923;52.520;13.494;2023-04-12T14:48:36;3.93;;;0.70;;
9767;SDS011;4923;52.520;13.494;2023-04-12T14:51:24;3.20;;;0.93;;
9767;SDS011;4923;52.520;13.494;2023-04-12T14:54:12;4.17;;;1.90;;
9767;SDS011;4923;52.520;13.494;2023-04-12T14:56:58;4.30;;;0.87;;
9767;SDS011;4923;52.520;13.494;2023-04-12T14:59:45;1.87;;;0.70;;
9767;SDS011;4923;52.520;13.494;2023-04-12T15:02:32;0.80;;;0.77;;
9767;SDS011;4923;52.520;13.494;2023-04-12T15:05:19;1.77;;;0.83;;
9767;SDS011;4923;52.520;13.494;2023-04-12T15:08:07;9.17;;;0.97;;
9767;SDS011;4923;52.520;13.494;2023-04-12T15:10:54;1.03;;;0.60;;
9767;SDS011;4923;52.520;13.494;2023-04-12T15:13:41;2.23;;;0.97;;
9767;SDS011;4923;52.520;13.494;2023-04-12T15:16:28;1.40;;;0.70;;
9767;SDS011;4923;52.520;13.494;2023-04-12T15:19:15;2.00;;;0.73;;
9767;SDS011;4923;52.520;13.494;2023-04-12T15:22:04;2.23;;;0.73;;
9767;SDS011;4923;52.520;13.494;2023-04-12T15:24:52;2.03;;;0.70;;
9767;SDS011;4923;52.520;13.494;2023-04-12T15:27:41;2.30;;;0.73;;
9767;SDS011;4923;52.520;13.494;2023-04-12T15:30:28;1.50;;;1.20;;
9767;SDS011;4923;52.520;13.494;2023-04-12T15:33:16;3.87;;;0.73;;
9767;SDS011;4923;52.520;13.494;2023-04-12T15:36:03;4.47;;;0.83;;
9767;SDS011;4923;52.520;13.494;2023-04-12T15:38:50;3.50;;;1.00;;
9767;SDS011;4923;52.520;13.494;2023-04-12T15:41:40;1.60;;;1.00;;
9767;SDS011;4923;52.520;13.494;2023-04-12T15:44:27;2.80;;;1.00;;
9767;SDS011;4923;52.520;13.494;2023-04-12T15:47:16;1.30;;;1.10;;
9767;SDS011;4923;52.520;13.494;2023-04-12T15:50:03;1.40;;;1.10;;
9767;SDS011;4923;52.520;13.494;2023-04-12T15:52:50;1.27;;;0.73;;
9767;SDS011;4923;52.520;13.494;2023-04-12T15:55:41;1.13;;;0.80;;
9767;SDS011;4923;52.520;13.494;2023-04-12T15:58:30;0.80;;;0.80;;
9767;SDS011;4923;52.520;13.494;2023-04-12T16:01:17;1.30;;;1.20;;
9767;SDS011;4923;52.520;13.494;2023-04-12T16:04:04;2.27;;;0.97;;
9767;SDS011;4923;52.520;13.494;2023-04-12T16:06:51;3.30;;;0.80;;
9767;SDS011;4923;52.520;13.494;2023-04-12T16:09:38;0.80;;;0.80;;
9767;SDS011;4923;52.520;13.494;2023-04-12T16:12:25;2.20;;;0.77;;
9767;SDS011;4923;52.520;13.494;2023-04-12T16:15:13;1.33;;;0.70;;
9767;SDS011;4923;52.520;13.494;2023-04-12T16:18:01;2.30;;;1.07;;
9767;SDS011;4923;52.520;13.494;2023-04-12T16:20:47;1.50;;;1.23;;
9767;SDS011;4923;52.520;13.494;2023-04-12T16:23:36;1.03;;;1.00;;
9767;SDS011;4923;52.520;13.494;2023-04-12T16:26:24;4.63;;;1.10;;
9767;SDS011;4923;52.520;13.494;2023-04-12T16:29:11;3.47;;;1.00;;
9767;SDS011;4923;52.520;13.494;2023-04-12T16:31:59;3.40;;;1.30;;
9767;SDS011;4923;52.520;13.494;2023-04-12T16:34:46;4.93;;;1.80;;
9767;SDS011;4923;52.520;13.494;2023-04-12T16:37:35;2.53;;;1.73;;
9767;SDS011;4923;52.520;13.494;2023-04-12T16:40:23;6.18;;;1.75;;
9767;SDS011;4923;52.520;13.494;2023-04-12T16:43:10;6.68;;;1.42;;
9767;SDS011;4923;52.520;13.494;2023-04-12T16:46:01;3.03;;;1.67;;
9767;SDS011;4923;52.520;13.494;2023-04-12T16:48:50;1.50;;;1.20;;
9767;SDS011;4923;52.520;13.494;2023-04-12T16:51:37;3.30;;;1.63;;
9767;SDS011;4923;52.520;13.494;2023-04-12T16:54:24;5.82;;;1.80;;
9767;SDS011;4923;52.520;13.494;2023-04-12T16:57:11;2.67;;;1.85;;
9767;SDS011;4923;52.520;13.494;2023-04-12T16:59:58;1.70;;;1.40;;
9767;SDS011;4923;52.520;13.494;2023-04-12T17:02:45;3.10;;;1.70;;
9767;SDS011;4923;52.520;13.494;2023-04-12T17:05:35;2.05;;;1.95;;
9767;SDS011;4923;52.520;13.494;2023-04-12T17:08:22;3.40;;;1.27;;
9767;SDS011;4923;52.520;13.494;2023-04-12T17:11:09;4.57;;;1.80;;
9767;SDS011;4923;52.520;13.494;2023-04-12T17:13:56;1.90;;;1.80;;
9767;SDS011;4923;52.520;13.494;2023-04-12T17:16:44;12.80;;;2.28;;
9767;SDS011;4923;52.520;13.494;2023-04-12T17:19:31;1.90;;;1.77;;
9767;SDS011;4923;52.520;13.494;2023-04-12T17:22:19;7.22;;;2.63;;